sensor_id;sensor_type;location;lat;lon;timestamp;P1;durP1;ratioP1;P2;durP2;ratioP2
46875;SDS011;32866;50.160;14.768;2023-04-03T00:01:16;8.45;;;2.83;;
46875;SDS011;32866;50.160;14.768;2023-04-03T00:03:42;4.50;;;2.75;;
46875;SDS011;32866;50.160;14.768;2023-04-03T00:06:08;6.32;;;3.08;;
46875;SDS011;32866;50.160;14.768;2023-04-03T00:08:36;8.57;;;3.33;;
46875;SDS011;32866;50.160;14.768;2023-04-03T00:11:02;3.75;;;2.50;;
46875;SDS011;32866;50.160;14.768;2023-04-03T00:15:53;2.67;;;2.13;;
46875;SDS011;32866;50.160;14.768;2023-04-03T00:18:18;3.80;;;2.33;;
46875;SDS011;32866;50.160;14.768;2023-04-03T00:20:44;4.25;;;2.38;;
46875;SDS011;32866;50.160;14.768;2023-04-03T00:23:10;4.60;;;2.42;;
46875;SDS011;32866;50.160;14.768;2023-04-03T00:25:35;3.85;;;2.40;;
46875;SDS011;32866;50.160;14.768;2023-04-03T00:28:02;4.85;;;2.65;;
46875;SDS011;32866;50.160;14.768;2023-04-03T00:32:53;3.17;;;1.97;;
46875;SDS011;32866;50.160;14.768;2023-04-03T00:35:19;4.53;;;2.58;;
46875;SDS011;32866;50.160;14.768;2023-04-03T00:37:46;4.70;;;2.60;;
46875;SDS011;32866;50.160;14.768;2023-04-03T00:40:14;4.53;;;2.33;;
46875;SDS011;32866;50.160;14.768;2023-04-03T00:42:40;4.37;;;2.43;;
46875;SDS011;32866;50.160;14.768;2023-04-03T00:47:38;5.90;;;2.90;;
46875;SDS011;32866;50.160;14.768;2023-04-03T00:50:05;7.10;;;3.20;;
46875;SDS011;32866;50.160;14.768;2023-04-03T00:54:58;8.50;;;2.47;;
46875;SDS011;32866;50.160;14.768;2023-04-03T00:57:27;6.77;;;3.03;;
46875;SDS011;32866;50.160;14.768;2023-04-03T00:59:57;5.22;;;2.63;;
46875;SDS011;32866;50.160;14.768;2023-04-03T01:02:26;4.20;;;2.33;;
46875;SDS011;32866;50.160;14.768;2023-04-03T01:04:51;5.57;;;2.47;;
46875;SDS011;32866;50.160;14.768;2023-04-03T01:07:18;3.45;;;2.08;;
46875;SDS011;32866;50.160;14.768;2023-04-03T01:09:52;4.33;;;2.20;;
46875;SDS011;32866;50.160;14.768;2023-04-03T01:12:23;2.30;;;1.77;;
46875;SDS011;32866;50.160;14.768;2023-04-03T01:14:49;6.30;;;2.93;;
46875;SDS011;32866;50.160;14.768;2023-04-03T01:25:34;4.10;;;2.10;;
46875;SDS011;32866;50.160;14.768;2023-04-03T01:28:02;3.53;;;2.03;;
46875;SDS011;32866;50.160;14.768;2023-04-03T01:30:30;3.83;;;2.10;;
46875;SDS011;32866;50.160;14.768;2023-04-03T01:32:58;5.50;;;2.30;;
46875;SDS011;32866;50.160;14.768;2023-04-03T01:35:23;3.58;;;2.03;;
46875;SDS011;32866;50.160;14.768;2023-04-03T01:37:49;3.67;;;2.00;;
46875;SDS011;32866;50.160;14.768;2023-04-03T01:40:15;3.35;;;2.10;;
46875;SDS011;32866;50.160;14.768;2023-04-03T01:42:40;4.20;;;2.03;;
46875;SDS011;32866;50.160;14.768;2023-04-03T01:45:06;7.10;;;2.30;;
46875;SDS011;32866;50.160;14.768;2023-04-03T01:47:31;4.65;;;2.60;;
46875;SDS011;32866;50.160;14.768;2023-04-03T01:49:57;5.35;;;2.60;;
46875;SDS011;32866;50.160;14.768;2023-04-03T01:52:22;5.45;;;2.33;;
46875;SDS011;32866;50.160;14.768;2023-04-03T01:54:48;4.65;;;2.28;;
46875;SDS011;32866;50.160;14.768;2023-04-03T01:57:13;4.00;;;2.17;;
46875;SDS011;32866;50.160;14.768;2023-04-03T01:59:40;3.70;;;2.20;;
46875;SDS011;32866;50.160;14.768;2023-04-03T02:02:05;3.92;;;2.20;;
46875;SDS011;32866;50.160;14.768;2023-04-03T02:04:31;5.25;;;2.38;;
46875;SDS011;32866;50.160;14.768;2023-04-03T02:06:56;7.72;;;2.78;;
46875;SDS011;32866;50.160;14.768;2023-04-03T02:09:21;7.22;;;2.90;;
46875;SDS011;32866;50.160;14.768;2023-04-03T02:11:47;6.82;;;2.10;;
46875;SDS011;32866;50.160;14.768;2023-04-03T02:14:12;3.47;;;2.03;;
46875;SDS011;32866;50.160;14.768;2023-04-03T02:16:37;3.20;;;2.10;;
46875;SDS011;32866;50.160;14.768;2023-04-03T02:19:03;6.68;;;2.40;;
46875;SDS011;32866;50.160;14.768;2023-04-03T02:21:29;5.43;;;2.28;;
46875;SDS011;32866;50.160;14.768;2023-04-03T02:23:54;7.18;;;2.40;;
46875;SDS011;32866;50.160;14.768;2023-04-03T02:26:20;5.07;;;2.17;;
46875;SDS011;32866;50.160;14.768;2023-04-03T02:28:46;5.43;;;2.42;;
46875;SDS011;32866;50.160;14.768;2023-04-03T02:31:11;4.78;;;2.08;;
46875;SDS011;32866;50.160;14.768;2023-04-03T02:33:37;3.90;;;1.90;;
46875;SDS011;32866;50.160;14.768;2023-04-03T02:36:04;4.63;;;2.40;;
46875;SDS011;32866;50.160;14.768;2023-04-03T02:38:30;4.73;;;2.07;;
46875;SDS011;32866;50.160;14.768;2023-04-03T02:41:00;4.00;;;2.47;;
46875;SDS011;32866;50.160;14.768;2023-04-03T02:43:29;5.57;;;2.50;;
46875;SDS011;32866;50.160;14.768;2023-04-03T02:45:55;2.78;;;1.92;;
46875;SDS011;32866;50.160;14.768;2023-04-03T02:48:21;4.68;;;2.33;;
46875;SDS011;32866;50.160;14.768;2023-04-03T02:50:47;7.20;;;2.13;;
46875;SDS011;32866;50.160;14.768;2023-04-03T02:53:12;3.72;;;1.90;;
46875;SDS011;32866;50.160;14.768;2023-04-03T02:55:38;3.72;;;2.10;;
46875;SDS011;32866;50.160;14.768;2023-04-03T02:58:03;4.90;;;1.85;;
46875;SDS011;32866;50.160;14.768;2023-04-03T03:00:29;7.38;;;1.90;;
46875;SDS011;32866;50.160;14.768;2023-04-03T03:02:54;5.65;;;1.50;;
46875;SDS011;32866;50.160;14.768;2023-04-03T03:05:20;5.60;;;2.15;;
46875;SDS011;32866;50.160;14.768;2023-04-03T03:07:45;4.35;;;2.28;;
46875;SDS011;32866;50.160;14.768;2023-04-03T03:10:11;4.28;;;2.15;;
46875;SDS011;32866;50.160;14.768;2023-04-03T03:12:36;3.47;;;1.70;;
46875;SDS011;32866;50.160;14.768;2023-04-03T03:15:01;3.10;;;1.52;;
46875;SDS011;32866;50.160;14.768;2023-04-03T03:17:27;3.35;;;2.22;;
46875;SDS011;32866;50.160;14.768;2023-04-03T03:19:52;4.97;;;1.90;;
46875;SDS011;32866;50.160;14.768;2023-04-03T03:22:18;4.07;;;1.90;;
46875;SDS011;32866;50.160;14.768;2023-04-03T03:24:43;4.78;;;2.05;;
46875;SDS011;32866;50.160;14.768;2023-04-03T03:27:08;4.80;;;1.88;;
46875;SDS011;32866;50.160;14.768;2023-04-03T03:29:34;5.40;;;2.25;;
46875;SDS011;32866;50.160;14.768;2023-04-03T03:31:59;6.93;;;2.22;;
46875;SDS011;32866;50.160;14.768;2023-04-03T03:34:25;9.98;;;2.30;;
46875;SDS011;32866;50.160;14.768;2023-04-03T03:36:50;1.70;;;1.50;;
46875;SDS011;32866;50.160;14.768;2023-04-03T03:39:15;4.35;;;1.90;;
46875;SDS011;32866;50.160;14.768;2023-04-03T03:41:41;7.75;;;2.28;;
46875;SDS011;32866;50.160;14.768;2023-04-03T03:44:06;5.45;;;1.52;;
46875;SDS011;32866;50.160;14.768;2023-04-03T03:46:32;7.68;;;2.35;;
46875;SDS011;32866;50.160;14.768;2023-04-03T03:48:57;5.45;;;2.17;;
46875;SDS011;32866;50.160;14.768;2023-04-03T03:51:22;2.88;;;2.10;;
46875;SDS011;32866;50.160;14.768;2023-04-03T03:53:48;4.63;;;2.20;;
46875;SDS011;32866;50.160;14.768;2023-04-03T03:56:13;4.95;;;1.70;;
46875;SDS011;32866;50.160;14.768;2023-04-03T03:58:38;2.92;;;1.45;;
46875;SDS011;32866;50.160;14.768;2023-04-03T04:01:04;3.13;;;1.63;;
46875;SDS011;32866;50.160;14.768;2023-04-03T04:03:33;8.53;;;3.43;;
46875;SDS011;32866;50.160;14.768;2023-04-03T04:05:58;4.00;;;1.83;;
46875;SDS011;32866;50.160;14.768;2023-04-03T04:08:24;5.70;;;2.22;;
46875;SDS011;32866;50.160;14.768;2023-04-03T04:10:49;7.32;;;2.88;;
46875;SDS011;32866;50.160;14.768;2023-04-03T04:13:15;10.80;;;3.72;;
46875;SDS011;32866;50.160;14.768;2023-04-03T04:15:40;9.43;;;4.35;;
46875;SDS011;32866;50.160;14.768;2023-04-03T04:18:05;9.57;;;3.28;;
46875;SDS011;32866;50.160;14.768;2023-04-03T04:20:31;7.78;;;2.45;;
46875;SDS011;32866;50.160;14.768;2023-04-03T04:22:56;8.45;;;2.13;;
46875;SDS011;32866;50.160;14.768;2023-04-03T04:25:22;6.28;;;2.55;;
46875;SDS011;32866;50.160;14.768;2023-04-03T04:27:47;4.80;;;1.95;;
46875;SDS011;32866;50.160;14.768;2023-04-03T04:30:13;5.32;;;2.88;;
46875;SDS011;32866;50.160;14.768;2023-04-03T04:32:38;5.57;;;1.88;;
46875;SDS011;32866;50.160;14.768;2023-04-03T04:35:04;5.20;;;2.42;;
46875;SDS011;32866;50.160;14.768;2023-04-03T04:37:30;7.47;;;2.63;;
46875;SDS011;32866;50.160;14.768;2023-04-03T04:39:56;3.90;;;2.33;;
46875;SDS011;32866;50.160;14.768;2023-04-03T04:42:21;3.78;;;2.65;;
46875;SDS011;32866;50.160;14.768;2023-04-03T04:44:46;3.90;;;2.92;;
46875;SDS011;32866;50.160;14.768;2023-04-03T04:47:12;7.03;;;2.63;;
46875;SDS011;32866;50.160;14.768;2023-04-03T04:49:37;3.97;;;2.67;;
46875;SDS011;32866;50.160;14.768;2023-04-03T04:52:02;3.97;;;2.45;;
46875;SDS011;32866;50.160;14.768;2023-04-03T04:54:28;3.80;;;2.30;;
46875;SDS011;32866;50.160;14.768;2023-04-03T04:56:53;3.95;;;1.98;;
46875;SDS011;32866;50.160;14.768;2023-04-03T04:59:19;7.15;;;3.10;;
46875;SDS011;32866;50.160;14.768;2023-04-03T05:01:44;4.15;;;2.47;;
46875;SDS011;32866;50.160;14.768;2023-04-03T05:04:10;3.85;;;2.42;;
46875;SDS011;32866;50.160;14.768;2023-04-03T05:06:37;2.93;;;2.10;;
46875;SDS011;32866;50.160;14.768;2023-04-03T05:09:02;6.68;;;3.00;;
46875;SDS011;32866;50.160;14.768;2023-04-03T05:11:28;3.65;;;2.42;;
46875;SDS011;32866;50.160;14.768;2023-04-03T05:13:54;4.75;;;2.50;;
46875;SDS011;32866;50.160;14.768;2023-04-03T05:16:19;5.70;;;2.72;;
46875;SDS011;32866;50.160;14.768;2023-04-03T05:18:45;8.25;;;2.80;;
46875;SDS011;32866;50.160;14.768;2023-04-03T05:21:10;5.63;;;2.58;;
46875;SDS011;32866;50.160;14.768;2023-04-03T05:23:35;6.97;;;2.60;;
46875;SDS011;32866;50.160;14.768;2023-04-03T05:26:01;2.70;;;2.10;;
46875;SDS011;32866;50.160;14.768;2023-04-03T05:28:26;4.80;;;2.28;;
46875;SDS011;32866;50.160;14.768;2023-04-03T05:30:55;8.30;;;2.40;;
46875;SDS011;32866;50.160;14.768;2023-04-03T05:33:23;8.73;;;2.90;;
46875;SDS011;32866;50.160;14.768;2023-04-03T05:35:49;5.63;;;3.60;;
46875;SDS011;32866;50.160;14.768;2023-04-03T05:38:14;9.38;;;4.03;;
46875;SDS011;32866;50.160;14.768;2023-04-03T05:40:39;5.90;;;3.65;;
46875;SDS011;32866;50.160;14.768;2023-04-03T05:43:05;10.32;;;3.33;;
46875;SDS011;32866;50.160;14.768;2023-04-03T05:45:30;6.30;;;3.45;;
46875;SDS011;32866;50.160;14.768;2023-04-03T05:47:56;5.22;;;2.60;;
46875;SDS011;32866;50.160;14.768;2023-04-03T05:50:21;7.53;;;3.20;;
46875;SDS011;32866;50.160;14.768;2023-04-03T05:52:47;3.88;;;2.45;;
46875;SDS011;32866;50.160;14.768;2023-04-03T05:55:16;6.20;;;3.07;;
46875;SDS011;32866;50.160;14.768;2023-04-03T06:00:07;5.53;;;2.07;;
46875;SDS011;32866;50.160;14.768;2023-04-03T06:02:37;8.27;;;3.33;;
46875;SDS011;32866;50.160;14.768;2023-04-03T06:05:03;4.10;;;2.42;;
46875;SDS011;32866;50.160;14.768;2023-04-03T06:07:28;6.97;;;2.55;;
46875;SDS011;32866;50.160;14.768;2023-04-03T06:09:55;4.47;;;2.50;;
46875;SDS011;32866;50.160;14.768;2023-04-03T06:12:21;5.37;;;2.30;;
46875;SDS011;32866;50.160;14.768;2023-04-03T06:14:47;6.70;;;2.63;;
46875;SDS011;32866;50.160;14.768;2023-04-03T06:17:14;4.78;;;2.33;;
46875;SDS011;32866;50.160;14.768;2023-04-03T06:19:40;6.50;;;2.63;;
46875;SDS011;32866;50.160;14.768;2023-04-03T06:22:06;5.43;;;3.10;;
46875;SDS011;32866;50.160;14.768;2023-04-03T06:24:31;3.42;;;2.40;;
46875;SDS011;32866;50.160;14.768;2023-04-03T06:26:57;4.53;;;2.22;;
46875;SDS011;32866;50.160;14.768;2023-04-03T06:29:23;7.10;;;2.65;;
46875;SDS011;32866;50.160;14.768;2023-04-03T06:31:49;5.13;;;2.58;;
46875;SDS011;32866;50.160;14.768;2023-04-03T06:34:15;13.50;;;3.10;;
46875;SDS011;32866;50.160;14.768;2023-04-03T06:36:41;5.67;;;3.10;;
46875;SDS011;32866;50.160;14.768;2023-04-03T06:39:08;4.10;;;2.57;;
46875;SDS011;32866;50.160;14.768;2023-04-03T06:41:38;5.77;;;2.70;;
46875;SDS011;32866;50.160;14.768;2023-04-03T06:44:03;3.97;;;2.70;;
46875;SDS011;32866;50.160;14.768;2023-04-03T06:46:28;4.35;;;2.58;;
46875;SDS011;32866;50.160;14.768;2023-04-03T06:48:54;5.45;;;2.35;;
46875;SDS011;32866;50.160;14.768;2023-04-03T06:53:47;4.50;;;2.43;;
46875;SDS011;32866;50.160;14.768;2023-04-03T06:56:13;4.17;;;2.47;;
46875;SDS011;32866;50.160;14.768;2023-04-03T06:58:39;5.00;;;2.78;;
46875;SDS011;32866;50.160;14.768;2023-04-03T07:01:05;5.15;;;2.50;;
46875;SDS011;32866;50.160;14.768;2023-04-03T07:03:31;4.68;;;2.55;;
46875;SDS011;32866;50.160;14.768;2023-04-03T07:05:56;3.03;;;2.13;;
46875;SDS011;32866;50.160;14.768;2023-04-03T07:08:21;2.58;;;1.77;;
46875;SDS011;32866;50.160;14.768;2023-04-03T07:10:48;2.87;;;2.07;;
46875;SDS011;32866;50.160;14.768;2023-04-03T07:13:15;4.23;;;2.30;;
46875;SDS011;32866;50.160;14.768;2023-04-03T07:15:40;3.70;;;2.30;;
46875;SDS011;32866;50.160;14.768;2023-04-03T07:18:06;4.15;;;2.28;;
46875;SDS011;32866;50.160;14.768;2023-04-03T07:20:31;4.20;;;2.60;;
46875;SDS011;32866;50.160;14.768;2023-04-03T07:22:57;6.07;;;2.17;;
46875;SDS011;32866;50.160;14.768;2023-04-03T07:25:22;4.60;;;2.35;;
46875;SDS011;32866;50.160;14.768;2023-04-03T07:27:48;5.35;;;1.85;;
46875;SDS011;32866;50.160;14.768;2023-04-03T07:30:14;5.45;;;2.85;;
46875;SDS011;32866;50.160;14.768;2023-04-03T07:32:40;4.30;;;2.17;;
46875;SDS011;32866;50.160;14.768;2023-04-03T07:35:06;4.82;;;2.10;;
46875;SDS011;32866;50.160;14.768;2023-04-03T07:37:31;5.00;;;1.98;;
46875;SDS011;32866;50.160;14.768;2023-04-03T07:39:57;2.58;;;1.83;;
46875;SDS011;32866;50.160;14.768;2023-04-03T07:42:24;3.57;;;1.93;;
46875;SDS011;32866;50.160;14.768;2023-04-03T07:44:51;4.93;;;1.83;;
46875;SDS011;32866;50.160;14.768;2023-04-03T07:47:16;3.22;;;1.92;;
46875;SDS011;32866;50.160;14.768;2023-04-03T07:49:43;5.57;;;2.30;;
46875;SDS011;32866;50.160;14.768;2023-04-03T07:52:08;5.35;;;1.90;;
46875;SDS011;32866;50.160;14.768;2023-04-03T07:54:34;4.80;;;2.53;;
46875;SDS011;32866;50.160;14.768;2023-04-03T07:56:59;6.28;;;2.45;;
46875;SDS011;32866;50.160;14.768;2023-04-03T07:59:25;6.22;;;2.50;;
46875;SDS011;32866;50.160;14.768;2023-04-03T08:01:50;2.85;;;1.80;;
46875;SDS011;32866;50.160;14.768;2023-04-03T08:04:16;4.63;;;2.50;;
46875;SDS011;32866;50.160;14.768;2023-04-03T08:06:41;5.10;;;2.63;;
46875;SDS011;32866;50.160;14.768;2023-04-03T08:09:07;2.97;;;2.03;;
46875;SDS011;32866;50.160;14.768;2023-04-03T08:13:58;4.10;;;1.80;;
46875;SDS011;32866;50.160;14.768;2023-04-03T08:16:24;3.28;;;1.80;;
46875;SDS011;32866;50.160;14.768;2023-04-03T08:18:52;5.10;;;2.03;;
46875;SDS011;32866;50.160;14.768;2023-04-03T08:21:18;4.28;;;2.42;;
46875;SDS011;32866;50.160;14.768;2023-04-03T08:23:44;3.45;;;2.13;;
46875;SDS011;32866;50.160;14.768;2023-04-03T08:26:13;5.87;;;2.40;;
46875;SDS011;32866;50.160;14.768;2023-04-03T08:28:42;2.73;;;1.53;;
46875;SDS011;32866;50.160;14.768;2023-04-03T08:31:09;5.05;;;2.00;;
46875;SDS011;32866;50.160;14.768;2023-04-03T08:33:37;3.57;;;1.90;;
46875;SDS011;32866;50.160;14.768;2023-04-03T08:36:06;2.97;;;1.65;;
46875;SDS011;32866;50.160;14.768;2023-04-03T08:38:40;2.73;;;1.93;;
46875;SDS011;32866;50.160;14.768;2023-04-03T08:46:52;3.70;;;1.80;;
46875;SDS011;32866;50.160;14.768;2023-04-03T08:49:26;2.87;;;1.90;;
46875;SDS011;32866;50.160;14.768;2023-04-03T08:52:15;5.70;;;1.90;;
46875;SDS011;32866;50.160;14.768;2023-04-03T08:54:51;4.20;;;1.93;;
46875;SDS011;32866;50.160;14.768;2023-04-03T08:57:24;3.97;;;2.60;;
46875;SDS011;32866;50.160;14.768;2023-04-03T08:59:51;2.00;;;1.80;;
46875;SDS011;32866;50.160;14.768;2023-04-03T09:02:24;3.13;;;2.05;;
46875;SDS011;32866;50.160;14.768;2023-04-03T09:04:54;3.67;;;1.80;;
46875;SDS011;32866;50.160;14.768;2023-04-03T09:07:22;3.45;;;2.45;;
46875;SDS011;32866;50.160;14.768;2023-04-03T09:09:56;6.32;;;2.40;;
46875;SDS011;32866;50.160;14.768;2023-04-03T09:12:34;5.67;;;2.77;;
46875;SDS011;32866;50.160;14.768;2023-04-03T09:17:43;2.93;;;2.10;;
46875;SDS011;32866;50.160;14.768;2023-04-03T09:20:30;2.83;;;1.60;;
46875;SDS011;32866;50.160;14.768;2023-04-03T09:23:00;3.20;;;1.60;;
46875;SDS011;32866;50.160;14.768;2023-04-03T09:25:30;3.43;;;1.73;;
46875;SDS011;32866;50.160;14.768;2023-04-03T09:28:00;4.13;;;1.53;;
46875;SDS011;32866;50.160;14.768;2023-04-03T09:30:34;1.83;;;1.30;;
46875;SDS011;32866;50.160;14.768;2023-04-03T09:33:01;2.60;;;1.45;;
46875;SDS011;32866;50.160;14.768;2023-04-03T09:35:28;2.60;;;1.30;;
46875;SDS011;32866;50.160;14.768;2023-04-03T09:38:28;2.63;;;1.37;;
46875;SDS011;32866;50.160;14.768;2023-04-03T09:41:07;0.90;;;0.90;;
46875;SDS011;32866;50.160;14.768;2023-04-03T09:43:51;2.08;;;1.73;;
46875;SDS011;32866;50.160;14.768;2023-04-03T09:48:57;1.60;;;0.98;;
46875;SDS011;32866;50.160;14.768;2023-04-03T09:51:28;2.47;;;1.20;;
46875;SDS011;32866;50.160;14.768;2023-04-03T09:53:56;1.17;;;1.02;;
46875;SDS011;32866;50.160;14.768;2023-04-03T10:04:03;2.95;;;1.50;;
46875;SDS011;32866;50.160;14.768;2023-04-03T10:06:32;2.88;;;1.65;;
46875;SDS011;32866;50.160;14.768;2023-04-03T10:09:01;1.80;;;1.40;;
46875;SDS011;32866;50.160;14.768;2023-04-03T10:11:30;1.63;;;1.20;;
46875;SDS011;32866;50.160;14.768;2023-04-03T10:13:56;1.48;;;1.20;;
46875;SDS011;32866;50.160;14.768;2023-04-03T10:16:43;1.73;;;1.30;;
46875;SDS011;32866;50.160;14.768;2023-04-03T10:22:15;5.90;;;1.30;;
46875;SDS011;32866;50.160;14.768;2023-04-03T10:28:01;3.90;;;1.23;;
46875;SDS011;32866;50.160;14.768;2023-04-03T10:42:11;1.83;;;1.30;;
46875;SDS011;32866;50.160;14.768;2023-04-03T10:48:22;1.77;;;1.30;;
46875;SDS011;32866;50.160;14.768;2023-04-03T10:51:00;2.73;;;0.90;;
46875;SDS011;32866;50.160;14.768;2023-04-03T10:56:25;3.58;;;1.00;;
46875;SDS011;32866;50.160;14.768;2023-04-03T11:04:35;5.38;;;1.20;;
46875;SDS011;32866;50.160;14.768;2023-04-03T11:09:35;1.50;;;0.90;;
46875;SDS011;32866;50.160;14.768;2023-04-03T11:12:24;1.50;;;1.00;;
46875;SDS011;32866;50.160;14.768;2023-04-03T11:15:02;2.83;;;1.43;;
46875;SDS011;32866;50.160;14.768;2023-04-03T11:17:35;2.13;;;1.40;;
46875;SDS011;32866;50.160;14.768;2023-04-03T11:20:19;1.83;;;1.10;;
46875;SDS011;32866;50.160;14.768;2023-04-03T11:23:03;1.77;;;1.13;;
46875;SDS011;32866;50.160;14.768;2023-04-03T11:25:34;1.87;;;1.10;;
46875;SDS011;32866;50.160;14.768;2023-04-03T11:28:06;1.43;;;1.33;;
46875;SDS011;32866;50.160;14.768;2023-04-03T11:30:40;2.60;;;1.50;;
46875;SDS011;32866;50.160;14.768;2023-04-03T11:36:24;1.90;;;1.27;;
46875;SDS011;32866;50.160;14.768;2023-04-03T11:38:54;3.22;;;1.52;;
46875;SDS011;32866;50.160;14.768;2023-04-03T11:41:31;6.95;;;2.00;;
46875;SDS011;32866;50.160;14.768;2023-04-03T11:44:01;1.90;;;1.10;;
46875;SDS011;32866;50.160;14.768;2023-04-03T11:46:53;2.65;;;1.27;;
46875;SDS011;32866;50.160;14.768;2023-04-03T12:13:41;4.30;;;1.63;;
46875;SDS011;32866;50.160;14.768;2023-04-03T12:16:09;1.58;;;0.95;;
46875;SDS011;32866;50.160;14.768;2023-04-03T12:21:14;2.65;;;1.23;;
46875;SDS011;32866;50.160;14.768;2023-04-03T12:29:34;2.87;;;1.30;;
46875;SDS011;32866;50.160;14.768;2023-04-03T12:32:15;3.35;;;1.48;;
46875;SDS011;32866;50.160;14.768;2023-04-03T12:43:14;3.33;;;1.43;;
46875;SDS011;32866;50.160;14.768;2023-04-03T12:48:26;3.90;;;1.37;;
46875;SDS011;32866;50.160;14.768;2023-04-03T12:50:54;6.30;;;1.57;;
46875;SDS011;32866;50.160;14.768;2023-04-03T12:53:22;5.50;;;1.80;;
46875;SDS011;32866;50.160;14.768;2023-04-03T12:55:53;3.40;;;1.40;;
46875;SDS011;32866;50.160;14.768;2023-04-03T13:03:40;2.97;;;0.93;;
46875;SDS011;32866;50.160;14.768;2023-04-03T13:12:03;3.70;;;1.40;;
46875;SDS011;32866;50.160;14.768;2023-04-03T13:14:36;2.00;;;1.40;;
46875;SDS011;32866;50.160;14.768;2023-04-03T13:17:15;1.67;;;1.50;;
46875;SDS011;32866;50.160;14.768;2023-04-03T13:19:41;1.77;;;1.00;;
46875;SDS011;32866;50.160;14.768;2023-04-03T13:22:19;2.77;;;1.80;;
46875;SDS011;32866;50.160;14.768;2023-04-03T13:24:46;2.70;;;1.20;;
46875;SDS011;32866;50.160;14.768;2023-04-03T13:27:15;4.03;;;1.10;;
46875;SDS011;32866;50.160;14.768;2023-04-03T13:32:07;5.50;;;1.87;;
46875;SDS011;32866;50.160;14.768;2023-04-03T13:34:44;5.57;;;1.70;;
46875;SDS011;32866;50.160;14.768;2023-04-03T13:40:24;5.83;;;2.53;;
46875;SDS011;32866;50.160;14.768;2023-04-03T13:42:43;5.90;;;2.43;;
46875;SDS011;32866;50.160;14.768;2023-04-03T13:45:19;3.92;;;1.95;;
46875;SDS011;32866;50.160;14.768;2023-04-03T13:47:49;3.47;;;1.77;;
46875;SDS011;32866;50.160;14.768;2023-04-03T13:50:19;1.43;;;1.33;;
46875;SDS011;32866;50.160;14.768;2023-04-03T13:53:08;4.03;;;1.30;;
46875;SDS011;32866;50.160;14.768;2023-04-03T13:55:39;1.93;;;1.13;;
46875;SDS011;32866;50.160;14.768;2023-04-03T13:58:24;1.73;;;1.40;;
46875;SDS011;32866;50.160;14.768;2023-04-03T14:06:08;1.93;;;1.23;;
46875;SDS011;32866;50.160;14.768;2023-04-03T14:08:39;3.77;;;1.27;;
46875;SDS011;32866;50.160;14.768;2023-04-03T14:11:04;1.27;;;1.05;;
46875;SDS011;32866;50.160;14.768;2023-04-03T14:13:31;5.95;;;1.58;;
46875;SDS011;32866;50.160;14.768;2023-04-03T14:15:57;2.50;;;1.40;;
46875;SDS011;32866;50.160;14.768;2023-04-03T14:18:22;6.68;;;1.10;;
46875;SDS011;32866;50.160;14.768;2023-04-03T14:20:48;3.17;;;1.70;;
46875;SDS011;32866;50.160;14.768;2023-04-03T14:25:39;2.77;;;1.40;;
46875;SDS011;32866;50.160;14.768;2023-04-03T14:28:19;4.20;;;1.33;;
46875;SDS011;32866;50.160;14.768;2023-04-03T14:30:46;4.00;;;1.60;;
46875;SDS011;32866;50.160;14.768;2023-04-03T14:33:14;2.83;;;1.20;;
46875;SDS011;32866;50.160;14.768;2023-04-03T14:35:41;2.20;;;1.53;;
46875;SDS011;32866;50.160;14.768;2023-04-03T14:40:52;4.80;;;1.73;;
46875;SDS011;32866;50.160;14.768;2023-04-03T14:43:18;2.97;;;1.77;;
46875;SDS011;32866;50.160;14.768;2023-04-03T14:45:44;3.00;;;1.67;;
46875;SDS011;32866;50.160;14.768;2023-04-03T14:48:21;5.18;;;1.90;;
46875;SDS011;32866;50.160;14.768;2023-04-03T14:50:49;2.53;;;1.50;;
46875;SDS011;32866;50.160;14.768;2023-04-03T14:53:16;4.43;;;1.13;;
46875;SDS011;32866;50.160;14.768;2023-04-03T14:55:46;2.57;;;1.40;;
46875;SDS011;32866;50.160;14.768;2023-04-03T14:58:16;1.77;;;1.20;;
46875;SDS011;32866;50.160;14.768;2023-04-03T15:00:43;3.43;;;1.40;;
46875;SDS011;32866;50.160;14.768;2023-04-03T15:03:12;1.70;;;1.15;;
46875;SDS011;32866;50.160;14.768;2023-04-03T15:05:39;4.97;;;2.10;;
46875;SDS011;32866;50.160;14.768;2023-04-03T15:08:05;2.95;;;2.08;;
46875;SDS011;32866;50.160;14.768;2023-04-03T15:10:38;2.37;;;1.40;;
46875;SDS011;32866;50.160;14.768;2023-04-03T15:13:03;4.72;;;1.60;;
46875;SDS011;32866;50.160;14.768;2023-04-03T15:15:29;2.67;;;1.75;;
46875;SDS011;32866;50.160;14.768;2023-04-03T15:17:55;5.15;;;2.40;;
46875;SDS011;32866;50.160;14.768;2023-04-03T15:20:25;2.73;;;1.73;;
46875;SDS011;32866;50.160;14.768;2023-04-03T15:22:52;5.27;;;1.77;;
46875;SDS011;32866;50.160;14.768;2023-04-03T15:25:21;2.53;;;1.53;;
46875;SDS011;32866;50.160;14.768;2023-04-03T15:27:46;2.10;;;1.38;;
46875;SDS011;32866;50.160;14.768;2023-04-03T15:30:14;1.48;;;0.82;;
46875;SDS011;32866;50.160;14.768;2023-04-03T15:32:41;5.10;;;1.97;;
46875;SDS011;32866;50.160;14.768;2023-04-03T15:35:07;4.18;;;1.90;;
46875;SDS011;32866;50.160;14.768;2023-04-03T15:37:32;2.22;;;1.38;;
46875;SDS011;32866;50.160;14.768;2023-04-03T15:39:58;4.43;;;2.03;;
46875;SDS011;32866;50.160;14.768;2023-04-03T15:42:23;7.25;;;1.40;;
46875;SDS011;32866;50.160;14.768;2023-04-03T15:44:49;2.67;;;1.80;;
46875;SDS011;32866;50.160;14.768;2023-04-03T15:47:14;3.10;;;2.58;;
46875;SDS011;32866;50.160;14.768;2023-04-03T15:49:42;4.65;;;1.70;;
46875;SDS011;32866;50.160;14.768;2023-04-03T15:52:08;3.30;;;1.50;;
46875;SDS011;32866;50.160;14.768;2023-04-03T15:54:33;2.92;;;1.90;;
46875;SDS011;32866;50.160;14.768;2023-04-03T15:56:59;3.33;;;2.05;;
46875;SDS011;32866;50.160;14.768;2023-04-03T15:59:24;4.07;;;1.77;;
46875;SDS011;32866;50.160;14.768;2023-04-03T16:01:50;3.42;;;2.00;;
46875;SDS011;32866;50.160;14.768;2023-04-03T16:04:17;3.30;;;1.63;;
46875;SDS011;32866;50.160;14.768;2023-04-03T16:06:43;7.80;;;1.83;;
46875;SDS011;32866;50.160;14.768;2023-04-03T16:09:08;3.03;;;1.95;;
46875;SDS011;32866;50.160;14.768;2023-04-03T16:11:35;2.40;;;2.10;;
46875;SDS011;32866;50.160;14.768;2023-04-03T16:14:00;4.47;;;1.73;;
46875;SDS011;32866;50.160;14.768;2023-04-03T16:16:26;2.65;;;1.92;;
46875;SDS011;32866;50.160;14.768;2023-04-03T16:18:53;3.55;;;1.90;;
46875;SDS011;32866;50.160;14.768;2023-04-03T16:21:20;3.60;;;1.63;;
46875;SDS011;32866;50.160;14.768;2023-04-03T16:23:46;2.95;;;2.22;;
46875;SDS011;32866;50.160;14.768;2023-04-03T16:26:11;3.50;;;2.00;;
46875;SDS011;32866;50.160;14.768;2023-04-03T16:28:37;3.35;;;2.58;;
46875;SDS011;32866;50.160;14.768;2023-04-03T16:31:02;7.35;;;2.72;;
46875;SDS011;32866;50.160;14.768;2023-04-03T16:33:28;3.67;;;1.90;;
46875;SDS011;32866;50.160;14.768;2023-04-03T16:35:54;4.70;;;1.60;;
46875;SDS011;32866;50.160;14.768;2023-04-03T16:38:20;7.85;;;1.88;;
46875;SDS011;32866;50.160;14.768;2023-04-03T16:40:47;2.73;;;1.90;;
46875;SDS011;32866;50.160;14.768;2023-04-03T16:43:13;5.03;;;2.57;;
46875;SDS011;32866;50.160;14.768;2023-04-03T16:45:39;3.37;;;2.00;;
46875;SDS011;32866;50.160;14.768;2023-04-03T16:48:05;6.05;;;1.90;;
46875;SDS011;32866;50.160;14.768;2023-04-03T16:50:31;3.05;;;1.70;;
46875;SDS011;32866;50.160;14.768;2023-04-03T16:52:56;3.28;;;2.30;;
46875;SDS011;32866;50.160;14.768;2023-04-03T16:55:21;4.00;;;2.00;;
46875;SDS011;32866;50.160;14.768;2023-04-03T16:57:47;5.72;;;3.08;;
46875;SDS011;32866;50.160;14.768;2023-04-03T17:00:12;6.25;;;2.88;;
46875;SDS011;32866;50.160;14.768;2023-04-03T17:02:39;5.10;;;2.83;;
46875;SDS011;32866;50.160;14.768;2023-04-03T17:05:05;9.98;;;3.50;;
46875;SDS011;32866;50.160;14.768;2023-04-03T17:07:31;8.60;;;2.87;;